Airfield :
LOGIN :

Register | Disclaimer

   EN    FR    IT 

 










Legend :    VFR   Marginal VFR   IFR   Intensive IFR   Very Intensive IFR
Visi :
Ceiling :
>= 8 km
>= 3000ft
5 to 8 km
1000 to 3000 ft
1500m to 5 km
500 to 1000 ft
800 to 1500m
200 to 500 ft
< 800m
< 200 ft
Symbols :   Thunderstorms  Fog  Heavy snow  Heavy precipitations  Wind > 20 kt
SIGMETs :     Misc.  Thunderstorms  Icing  Turbulence  Mountain Waves  Volcanic Ashes






- Airport Elevation : 1202 ft
- IATA code : IGS


ETSI - Ingolstadt

CURRENT METAR :
  • 250820Z 07009KT 9999 22/12 Q1014 BLU+BLU+

EXPIRED METARs :
  • 250720Z 07009KT 9999 21/12 Q1015 BLU+BLU+
  • 250620Z 07009KT 9999 19/12 Q1015 BLU+BLU+
  • 250520Z 07007KT 9999 17/11 Q1015 BLU+BLU+
  • 250420Z 07005KT 9999 16/11 Q1015 BLU+BLU+

TAF TAF ETSI
Valid from the 25 at 08:00 until the 25 at 17:00 UTC


250710Z 2508/2517 07008KT 9999 NSW SKC



MET'MAP, your aeronautical weather chart ! - Copyright ORBIFLY December 2007 - Disclaimer

ORBIFLY MET'MAP TEAM :

Programming & Development : Alexandra Zaïnal
Original concept : Baudouin d'Aumeries
Technical & hardware support : Manuel Goepfert
Assistance : Marc-Olivier Méhu




SOURCES & CREDITS :

   NOAA